createdAt,value
2017-09-23T00:00:31.098Z,73.27
2017-09-23T00:01:31.127Z,73.27
2017-09-23T00:02:31.144Z,73.36
2017-09-23T00:03:31.160Z,73.65
2017-09-23T00:04:31.184Z,73.36
2017-09-23T00:05:31.203Z,74.04
2017-09-23T00:06:31.227Z,73.75
2017-09-23T00:07:31.247Z,73.46
2017-09-23T00:08:31.270Z,73.36
2017-09-23T00:09:31.340Z,72.98
2017-09-23T00:10:31.312Z,73.55
2017-09-23T00:11:31.333Z,73.46
2017-09-23T00:12:31.351Z,73.36
2017-09-23T00:13:31.374Z,73.27
2017-09-23T00:14:31.412Z,72.79
2017-09-23T00:15:31.417Z,72.6
2017-09-23T00:16:31.438Z,72.79
2017-09-23T00:17:31.459Z,72.88
2017-09-23T00:18:31.480Z,73.27
2017-09-23T00:19:31.500Z,72.79
2017-09-23T00:20:31.522Z,73.36
2017-09-23T00:21:31.542Z,73.14
2017-09-23T00:22:31.565Z,74.04
2017-09-23T00:23:31.582Z,72.98
2017-09-23T00:24:31.604Z,72.98
2017-09-23T00:25:31.624Z,72.5
2017-09-23T00:26:31.648Z,72.88
2017-09-23T00:27:31.674Z,73.27
2017-09-23T00:28:31.742Z,73.14
2017-09-23T00:29:31.750Z,73.08
2017-09-23T00:30:31.730Z,72.69
2017-09-23T00:31:31.760Z,72.79
2017-09-23T00:32:31.774Z,72.5
2017-09-23T00:33:31.799Z,72.88
2017-09-23T00:34:31.815Z,72.79
2017-09-23T00:35:31.835Z,72.88
2017-09-23T00:36:31.876Z,72.79
2017-09-23T00:37:31.882Z,72.98
2017-09-23T00:38:31.899Z,72.88
2017-09-23T00:39:31.921Z,73.14
2017-09-23T00:40:31.940Z,72.79
2017-09-23T00:41:31.961Z,73.23
2017-09-23T00:42:31.989Z,73.14
2017-09-23T00:43:32.006Z,73.43
2017-09-23T00:44:32.023Z,73.46
2017-09-23T00:45:32.095Z,73.14
2017-09-23T00:46:32.064Z,72.69
2017-09-23T00:47:32.091Z,73.14
2017-09-23T00:48:32.113Z,73.43
2017-09-23T00:49:32.131Z,73.61
2017-09-23T00:50:32.157Z,73.99
2017-09-23T00:51:32.174Z,73.52
2017-09-23T00:52:32.205Z,73.65
2017-09-23T00:53:32.212Z,73.36
2017-09-23T00:54:32.231Z,73.36
2017-09-23T00:55:32.252Z,73.71
2017-09-23T00:56:32.273Z,72.88
2017-09-23T00:57:32.299Z,73.17
2017-09-23T00:58:32.314Z,73.08
2017-09-23T00:59:32.340Z,72.5
2017-09-23T01:00:32.420Z,72.69
2017-09-23T01:01:32.377Z,72.66
2017-09-23T01:02:32.398Z,73.17
2017-09-23T01:03:32.421Z,73.04
2017-09-23T01:04:32.441Z,73.61
2017-09-23T01:05:32.460Z,73.61
2017-09-23T01:06:32.483Z,73.43
2017-09-23T01:07:32.507Z,73.14
2017-09-23T01:08:32.526Z,73.33
2017-09-23T01:09:32.851Z,73.9
2017-09-23T01:10:32.567Z,73.71
2017-09-23T01:11:32.583Z,73.9
2017-09-23T01:12:32.609Z,74.09
2017-09-23T01:13:32.629Z,73.99
2017-09-23T01:14:32.987Z,73.71
2017-09-23T01:15:32.717Z,74.09
2017-09-23T01:16:32.689Z,73.99
2017-09-23T01:17:32.711Z,73.99
2017-09-23T01:18:32.768Z,73.61
2017-09-23T01:19:32.751Z,74.38
2017-09-23T01:20:32.776Z,73.99
2017-09-23T01:21:32.792Z,73.8
2017-09-23T01:22:33.126Z,74.48
2017-09-23T01:23:32.830Z,74.38
2017-09-23T01:24:32.855Z,74.48
2017-09-23T01:25:32.924Z,74.57
2017-09-23T01:26:32.891Z,74.57
2017-09-23T01:27:32.915Z,74.85
2017-09-23T01:28:32.935Z,74.57
2017-09-23T01:29:32.958Z,75.14
2017-09-23T01:30:33.026Z,75.52
2017-09-23T01:31:32.995Z,75.43
2017-09-23T01:32:33.027Z,75.81
2017-09-23T01:33:33.036Z,75.71
2017-09-23T01:34:33.057Z,75.43
2017-09-23T01:35:33.078Z,75.71
2017-09-23T01:36:33.103Z,76
2017-09-23T01:37:33.122Z,75.24
2017-09-23T01:38:33.139Z,74.95
2017-09-23T01:39:33.158Z,74.95
2017-09-23T01:40:33.183Z,74.66
2017-09-23T01:41:33.256Z,75.05
2017-09-23T01:42:33.224Z,75.81
2017-09-23T01:43:33.241Z,77.44
2017-09-23T01:44:33.263Z,77.82
2017-09-23T01:45:33.283Z,79.16
2017-09-23T01:46:33.359Z,79.44
2017-09-23T01:47:33.325Z,78.49
2017-09-23T01:48:33.343Z,78.68
2017-09-23T01:49:33.370Z,78.58
2017-09-23T01:50:33.386Z,79.35
2017-09-23T01:51:33.404Z,77.92
2017-09-23T01:52:33.431Z,77.06
2017-09-23T01:53:33.756Z,78.3
2017-09-23T01:54:33.466Z,77.82
2017-09-23T01:55:33.495Z,78.3
2017-09-23T01:56:33.821Z,77.92
2017-09-23T01:57:33.532Z,78.3
2017-09-23T01:58:33.549Z,79.73
2017-09-23T01:59:33.572Z,78.39
2017-09-23T02:00:33.592Z,78.58
2017-09-23T02:01:33.621Z,79.06
2017-09-23T02:02:33.648Z,79.25
2017-09-23T02:03:33.654Z,78.3
2017-09-23T02:04:33.677Z,78.3
2017-09-23T02:05:33.701Z,77.92
2017-09-23T02:06:33.719Z,78.58
2017-09-23T02:07:33.736Z,78.49
2017-09-23T02:08:33.778Z,78.3
2017-09-23T02:09:33.778Z,77.72
2017-09-23T02:10:33.805Z,77.92
2017-09-23T02:11:34.135Z,78.64
2017-09-23T02:12:34.148Z,79.02
2017-09-23T02:13:33.863Z,78.01
2017-09-23T02:14:33.879Z,78.83
2017-09-23T02:15:33.903Z,78.55
2017-09-23T02:16:33.920Z,78.55
2017-09-23T02:17:33.994Z,78.74
2017-09-23T02:18:33.968Z,79.41
2017-09-23T02:19:33.991Z,79.12
2017-09-23T02:20:34.002Z,79.31
2017-09-23T02:21:34.025Z,79.5
2017-09-23T02:22:34.048Z,79.88
2017-09-23T02:23:34.064Z,79.22
2017-09-23T02:24:34.090Z,79.02
2017-09-23T02:25:34.108Z,79.08
2017-09-23T02:26:34.130Z,79.85
2017-09-23T02:27:34.147Z,80.04
2017-09-23T02:28:34.171Z,80.13
2017-09-23T02:29:34.197Z,80.07
2017-09-23T02:30:34.208Z,80.04
2017-09-23T02:31:34.228Z,80.07
2017-09-23T02:32:34.251Z,80.27
2017-09-23T02:33:34.322Z,79.56
2017-09-23T02:34:34.294Z,80.46
2017-09-23T02:35:34.308Z,79.22
2017-09-23T02:36:34.334Z,79.22
2017-09-23T02:37:34.361Z,79.36
2017-09-23T02:38:34.373Z,79.41
2017-09-23T02:39:34.390Z,79.12
2017-09-23T02:40:34.417Z,79.02
2017-09-23T02:41:34.439Z,79.02
2017-09-23T02:42:34.456Z,78.83
2017-09-23T02:43:34.483Z,78.36
2017-09-23T02:44:34.495Z,78.07
2017-09-23T02:45:34.522Z,78.45
2017-09-23T02:46:34.532Z,78.16
2017-09-23T02:47:34.556Z,78.26
2017-09-23T02:48:34.633Z,78.64
2017-09-23T02:49:34.592Z,78.45
2017-09-23T02:50:34.613Z,78.16
2017-09-23T02:51:34.643Z,77.78
2017-09-23T02:52:34.664Z,78.26
2017-09-23T02:53:34.675Z,78.16
2017-09-23T02:54:34.696Z,78.16
2017-09-23T02:55:34.722Z,78.36
2017-09-23T02:56:34.742Z,78.64
2017-09-23T02:57:34.756Z,78.55
2017-09-23T02:58:34.781Z,77.87
2017-09-23T02:59:34.799Z,77.59
2017-09-23T03:00:35.132Z,78.16
2017-09-23T03:01:34.853Z,78.26
2017-09-23T03:02:34.861Z,78.45
2017-09-23T03:03:34.884Z,77.87
2017-09-23T03:04:34.908Z,77.97
2017-09-23T03:05:34.918Z,77.69
2017-09-23T03:06:34.990Z,77.3
2017-09-23T03:07:34.962Z,78.36
2017-09-23T03:08:34.980Z,78.6
2017-09-23T03:09:35.005Z,78.16
2017-09-23T03:10:35.019Z,77.78
2017-09-23T03:11:35.044Z,78.36
2017-09-23T03:12:35.064Z,78.07
2017-09-23T03:13:35.079Z,78.45
2017-09-23T03:14:35.101Z,77.94
2017-09-23T03:15:35.120Z,78.13
2017-09-23T03:16:35.145Z,77.78
2017-09-23T03:17:35.171Z,77.87
2017-09-23T03:18:35.181Z,77.59
2017-09-23T03:19:35.200Z,77.5
2017-09-23T03:20:35.221Z,77.01
2017-09-23T03:21:35.243Z,77.4
2017-09-23T03:22:35.269Z,77.17
2017-09-23T03:23:35.289Z,77.65
2017-09-23T03:24:35.302Z,77.87
2017-09-23T03:25:35.323Z,78.6
2017-09-23T03:26:35.345Z,78.6
2017-09-23T03:27:35.369Z,78.7
2017-09-23T03:28:35.385Z,78.36
2017-09-23T03:29:35.406Z,77.74
2017-09-23T03:30:35.431Z,77.78
2017-09-23T03:31:35.448Z,77.5
2017-09-23T03:32:35.471Z,77.5
2017-09-23T03:33:35.801Z,77.78
2017-09-23T03:34:35.511Z,76.82
2017-09-23T03:35:35.583Z,76.64
2017-09-23T03:36:35.547Z,77.69
2017-09-23T03:37:35.576Z,77.01
2017-09-23T03:38:35.595Z,77.11
2017-09-23T03:39:35.611Z,77.21
2017-09-23T03:40:35.832Z,76.67
2017-09-23T03:41:35.648Z,76.35
2017-09-23T03:42:35.678Z,76.86
2017-09-23T03:43:36.024Z,76.67
2017-09-23T03:44:36.028Z,76.57
2017-09-23T03:45:35.735Z,76.48
2017-09-23T03:46:35.750Z,75.52
2017-09-23T03:47:35.780Z,75.52
2017-09-23T03:48:35.787Z,75.91
2017-09-23T03:49:35.811Z,76.57
2017-09-23T03:50:35.830Z,76.73
2017-09-23T03:51:35.856Z,76.39
2017-09-23T03:52:35.878Z,76
2017-09-23T03:53:35.896Z,76.1
2017-09-23T03:54:35.923Z,76.45
2017-09-23T03:55:35.982Z,76.48
2017-09-23T03:56:35.955Z,75.62
2017-09-23T03:57:36.283Z,76.67
2017-09-23T03:58:35.999Z,76.57
2017-09-23T03:59:36.338Z,75.62
2017-09-23T04:00:36.035Z,75.62
2017-09-23T04:01:36.058Z,75.71
2017-09-23T04:02:36.080Z,75.81
2017-09-23T04:03:36.099Z,75.71
2017-09-23T04:04:36.120Z,75.91
2017-09-23T04:05:36.141Z,75.62
2017-09-23T04:06:36.171Z,76.45
2017-09-23T04:07:36.181Z,75.39
2017-09-23T04:08:36.202Z,76.35
2017-09-23T04:09:36.224Z,76.92
2017-09-23T04:10:36.295Z,77.3
2017-09-23T04:11:36.264Z,77.26
2017-09-23T04:12:36.283Z,77.4
2017-09-23T04:13:36.301Z,77.59
2017-09-23T04:14:36.323Z,77.3
2017-09-23T04:15:36.344Z,76.92
2017-09-23T04:16:36.385Z,76.73
2017-09-23T04:17:36.384Z,77.3
2017-09-23T04:18:36.409Z,76.82
2017-09-23T04:19:36.424Z,76.73
2017-09-23T04:20:36.448Z,76.25
2017-09-23T04:21:36.469Z,76.64
2017-09-23T04:22:36.488Z,76.73
2017-09-23T04:23:36.512Z,75.91
2017-09-23T04:24:36.532Z,75.71
2017-09-23T04:25:36.549Z,75.78
2017-09-23T04:26:36.617Z,75.68
2017-09-23T04:27:36.588Z,75.87
2017-09-23T04:28:36.607Z,75.96
2017-09-23T04:29:36.632Z,76.64
2017-09-23T04:30:36.659Z,76.54
2017-09-23T04:31:36.670Z,76.16
2017-09-23T04:32:36.711Z,76.54
2017-09-23T04:33:36.709Z,75.59
2017-09-23T04:34:36.729Z,75.78
2017-09-23T04:35:36.753Z,76
2017-09-23T04:36:36.772Z,75.43
2017-09-23T04:37:36.790Z,76
2017-09-23T04:38:36.816Z,75.14
2017-09-23T04:39:36.833Z,74.95
2017-09-23T04:40:36.851Z,75.59
2017-09-23T04:41:36.883Z,75.68
2017-09-23T04:42:36.900Z,76.45
2017-09-23T04:43:36.914Z,76.25
2017-09-23T04:44:36.941Z,76.35
2017-09-23T04:45:36.955Z,77.01
2017-09-23T04:46:36.976Z,77.4
2017-09-23T04:47:36.997Z,77.01
2017-09-23T04:48:37.023Z,76.82
2017-09-23T04:49:37.039Z,77.21
2017-09-23T04:50:37.055Z,77.11
2017-09-23T04:51:37.074Z,77.01
2017-09-23T04:52:37.095Z,77.45
2017-09-23T04:53:37.116Z,77.5
2017-09-23T04:54:37.136Z,77.01
2017-09-23T04:55:37.159Z,77.08
2017-09-23T04:56:37.181Z,77.45
2017-09-23T04:57:37.197Z,77.21
2017-09-23T04:58:37.228Z,77.08
2017-09-23T04:59:37.295Z,77.21
2017-09-23T05:00:37.263Z,77.5
2017-09-23T05:01:37.281Z,77.55
2017-09-23T05:02:37.302Z,77.17
2017-09-23T05:03:37.642Z,76.98
2017-09-23T05:04:37.351Z,77.45
2017-09-23T05:05:37.360Z,76.92
2017-09-23T05:06:37.381Z,76.98
2017-09-23T05:07:37.400Z,77.4
2017-09-23T05:08:37.426Z,77.74
2017-09-23T05:09:37.457Z,77.4
2017-09-23T05:10:37.463Z,77.11
2017-09-23T05:11:37.484Z,77.21
2017-09-23T05:12:37.826Z,77.45
2017-09-23T05:13:37.523Z,77.87
2017-09-23T05:14:37.591Z,77.01
2017-09-23T05:15:37.569Z,77.01
2017-09-23T05:16:37.592Z,77.01
2017-09-23T05:17:37.603Z,77.4
2017-09-23T05:18:37.622Z,77.3
2017-09-23T05:19:37.648Z,77.21
2017-09-23T05:20:37.716Z,77.01
2017-09-23T05:21:37.681Z,76.82
2017-09-23T05:22:37.704Z,77.21
2017-09-23T05:23:37.726Z,77.01
2017-09-23T05:24:37.746Z,76.64
2017-09-23T05:25:37.781Z,76.64
2017-09-23T05:26:37.786Z,76.45
2017-09-23T05:27:37.809Z,76.45
2017-09-23T05:28:37.829Z,76.45
2017-09-23T05:29:37.897Z,75.96
2017-09-23T05:30:37.873Z,75.96
2017-09-23T05:31:37.886Z,76.35
2017-09-23T05:32:37.911Z,75.78
2017-09-23T05:33:37.930Z,75.68
2017-09-23T05:34:37.950Z,75.87
2017-09-23T05:35:38.274Z,75.59
2017-09-23T05:36:37.990Z,75.68
2017-09-23T05:37:38.008Z,75.68
2017-09-23T05:38:38.031Z,75.59
2017-09-23T05:39:38.050Z,76.45
2017-09-23T05:40:38.072Z,76.64
2017-09-23T05:41:38.094Z,76.54
2017-09-23T05:42:38.108Z,76.45
2017-09-23T05:43:38.128Z,76.45
2017-09-23T05:44:38.200Z,76.06
2017-09-23T05:45:38.175Z,75.87
2017-09-23T05:46:38.192Z,75.78
2017-09-23T05:47:38.208Z,75.78
2017-09-23T05:48:38.231Z,75.59
2017-09-23T05:49:38.251Z,76.45
2017-09-23T05:50:38.271Z,76.35
2017-09-23T05:51:38.288Z,76.54
2017-09-23T05:52:38.307Z,76.64
2017-09-23T05:53:38.331Z,76.73
2017-09-23T05:54:38.349Z,76.35
2017-09-23T05:55:38.371Z,76.54
2017-09-23T05:56:38.396Z,76.45
2017-09-23T05:57:38.416Z,76.25
2017-09-23T05:58:38.431Z,76.45
2017-09-23T05:59:38.461Z,76.35
2017-09-23T06:00:38.471Z,76.57
2017-09-23T06:01:38.496Z,75.91
2017-09-23T06:02:38.527Z,75.71
2017-09-23T06:03:38.548Z,76.48
2017-09-23T06:04:38.551Z,76.73
2017-09-23T06:05:38.572Z,76.64
2017-09-23T06:06:38.594Z,76.86
2017-09-23T06:07:38.614Z,76.54
2017-09-23T06:08:38.636Z,76.48
2017-09-23T06:09:38.656Z,75.62
2017-09-23T06:10:38.686Z,75.43
2017-09-23T06:11:38.699Z,75.14
2017-09-23T06:12:38.722Z,74.48
2017-09-23T06:13:38.746Z,74.51
2017-09-23T06:14:38.761Z,74.22
2017-09-23T06:15:38.785Z,73.46
2017-09-23T06:16:38.802Z,73.84
2017-09-23T06:17:38.823Z,73.46
2017-09-23T06:18:38.891Z,73.27
2017-09-23T06:19:38.874Z,73.65
2017-09-23T06:20:38.886Z,73.17
2017-09-23T06:21:38.908Z,72.6
2017-09-23T06:22:38.928Z,72.54
2017-09-23T06:23:38.949Z,72.69
2017-09-23T06:24:38.973Z,72.31
2017-09-23T06:25:38.991Z,72.34
2017-09-23T06:26:39.019Z,72.34
2017-09-23T06:27:39.045Z,72.25
2017-09-23T06:28:39.079Z,71.58
2017-09-23T06:29:39.098Z,71.48
2017-09-23T06:30:39.097Z,71.48
2017-09-23T06:31:39.124Z,71.11
2017-09-23T06:32:39.141Z,70.72
2017-09-23T06:33:39.162Z,71.48
2017-09-23T06:34:39.231Z,71.2
2017-09-23T06:35:39.204Z,71.58
2017-09-23T06:36:39.225Z,71.68
2017-09-23T06:37:39.251Z,71.2
2017-09-23T06:38:39.272Z,71.11
2017-09-23T06:39:39.291Z,71.11
2017-09-23T06:40:39.319Z,70.91
2017-09-23T06:41:39.333Z,71.01
2017-09-23T06:42:39.357Z,70.91
2017-09-23T06:43:39.372Z,71.2
2017-09-23T06:44:39.395Z,70.81
2017-09-23T06:45:39.426Z,70.81
2017-09-23T06:46:39.441Z,69.8
2017-09-23T06:47:39.462Z,69.89
2017-09-23T06:48:39.483Z,69.51
2017-09-23T06:49:39.582Z,69.8
2017-09-23T06:50:39.527Z,69.03
2017-09-23T06:51:39.552Z,68.74
2017-09-23T06:52:39.572Z,68.21
2017-09-23T06:53:39.594Z,67.91
2017-09-23T06:54:39.925Z,68.21
2017-09-23T06:55:39.740Z,67.25
2017-09-23T06:56:39.980Z,66.67
2017-09-23T06:57:39.682Z,66.67
2017-09-23T06:58:39.700Z,66.38
2017-09-23T06:59:39.724Z,66.48
2017-09-23T07:00:39.745Z,66.86
2017-09-23T07:01:39.768Z,66.09
2017-09-23T07:02:39.788Z,65.81
2017-09-23T07:03:39.824Z,65.55
2017-09-23T07:04:39.860Z,65.65
2017-09-23T07:05:39.909Z,64.98
2017-09-23T07:06:39.886Z,65.36
2017-09-23T07:07:39.908Z,63.57
2017-09-23T07:08:39.925Z,64.25
2017-09-23T07:09:39.951Z,63.29
2017-09-23T07:10:39.977Z,63.48
2017-09-23T07:11:39.996Z,63.35
2017-09-23T07:12:40.022Z,63.96
2017-09-23T07:13:40.038Z,63.19
2017-09-23T07:14:40.062Z,63.19
2017-09-23T07:15:40.090Z,62.9
2017-09-23T07:16:40.107Z,62.62
2017-09-23T07:17:40.130Z,63
2017-09-23T07:18:40.153Z,62.07
2017-09-23T07:19:40.172Z,61.88
2017-09-23T07:20:40.250Z,61.98
2017-09-23T07:21:40.221Z,61.98
2017-09-23T07:22:40.238Z,61.98
2017-09-23T07:23:40.265Z,61.02
2017-09-23T07:24:40.486Z,60.92
2017-09-23T07:25:40.308Z,61.05
2017-09-23T07:26:40.337Z,60.08
2017-09-23T07:27:40.664Z,60.08
2017-09-23T07:28:40.377Z,60.57
2017-09-23T07:29:40.406Z,60.95
2017-09-23T07:30:40.423Z,59.92
2017-09-23T07:31:40.449Z,59.73
2017-09-23T07:32:40.470Z,59.34
2017-09-23T07:33:40.491Z,59.16
2017-09-23T07:34:40.514Z,58.96
2017-09-23T07:35:40.588Z,58.77
2017-09-23T07:36:40.594Z,58.87
2017-09-23T07:37:40.898Z,58.89
2017-09-23T07:38:40.607Z,58.7
2017-09-23T07:39:40.632Z,59.76
2017-09-23T07:40:40.656Z,58.51
2017-09-23T07:41:40.676Z,58.7
2017-09-23T07:42:40.700Z,57.65
2017-09-23T07:43:40.727Z,57.1
2017-09-23T07:44:40.750Z,56.52
2017-09-23T07:45:40.775Z,55.76
2017-09-23T07:46:40.795Z,55.44
2017-09-23T07:47:40.815Z,56.01
2017-09-23T07:48:40.839Z,55.53
2017-09-23T07:49:40.871Z,56.4
2017-09-23T07:50:40.893Z,56.11
2017-09-23T07:51:40.918Z,57.26
2017-09-23T07:52:40.939Z,57.55
2017-09-23T07:53:40.961Z,56.21
2017-09-23T07:54:40.981Z,56.21
2017-09-23T07:55:41.007Z,56.49
2017-09-23T07:56:41.027Z,56.3
2017-09-23T07:57:41.059Z,56.21
2017-09-23T07:58:41.084Z,56.11
2017-09-23T07:59:41.105Z,56.49
2017-09-23T08:00:41.438Z,56.78
2017-09-23T08:01:41.145Z,57.14
2017-09-23T08:02:41.170Z,56.59
2017-09-23T08:03:41.193Z,57.65
2017-09-23T08:04:41.222Z,57.36
2017-09-23T08:05:41.260Z,56.4
2017-09-23T08:06:41.263Z,56.01
2017-09-23T08:07:41.287Z,55.44
2017-09-23T08:08:41.311Z,55.05
2017-09-23T08:09:41.339Z,56.3
2017-09-23T08:10:41.358Z,56.11
2017-09-23T08:11:41.385Z,56.3
2017-09-23T08:12:41.407Z,55.53
2017-09-23T08:13:41.433Z,56.01
2017-09-23T08:14:41.453Z,56.46
2017-09-23T08:15:41.474Z,56.76
2017-09-23T08:16:41.501Z,56.66
2017-09-23T08:17:41.527Z,56.85
2017-09-23T08:18:41.544Z,57.43
2017-09-23T08:19:41.570Z,57.52
2017-09-23T08:20:41.597Z,57.17
2017-09-23T08:21:41.623Z,56.49
2017-09-23T08:22:41.641Z,56.4
2017-09-23T08:23:41.665Z,55.63
2017-09-23T08:24:41.685Z,55.05
2017-09-23T08:25:42.026Z,55.15
2017-09-23T08:26:41.734Z,54.96
2017-09-23T08:27:41.758Z,55.82
2017-09-23T08:28:41.784Z,54.69
2017-09-23T08:29:41.806Z,53.92
2017-09-23T08:30:41.828Z,53.64
2017-09-23T08:31:41.852Z,53.64
2017-09-23T08:32:41.880Z,53.42
2017-09-23T08:33:41.899Z,53.64
2017-09-23T08:34:41.925Z,53.52
2017-09-23T08:35:42.265Z,53.45
2017-09-23T08:36:41.981Z,53.64
2017-09-23T08:37:41.998Z,53.32
2017-09-23T08:38:42.336Z,53.16
2017-09-23T08:39:42.359Z,53.16
2017-09-23T08:40:42.073Z,53.64
2017-09-23T08:41:42.090Z,53.16
2017-09-23T08:42:42.118Z,53.64
2017-09-23T08:43:42.143Z,53.16
2017-09-23T08:44:42.168Z,52.97
2017-09-23T08:45:42.499Z,52.77
2017-09-23T08:46:42.217Z,52.29
2017-09-23T08:47:42.241Z,52.7
2017-09-23T08:48:42.263Z,52.32
2017-09-23T08:49:42.296Z,52.03
2017-09-23T08:50:42.312Z,52.44
2017-09-23T08:51:42.335Z,51.57
2017-09-23T08:52:42.368Z,51.29
2017-09-23T08:53:42.383Z,51.19
2017-09-23T08:54:42.416Z,50.9
2017-09-23T08:55:42.435Z,50.9
2017-09-23T08:56:42.459Z,50.9
2017-09-23T08:57:42.484Z,50.9
2017-09-23T08:58:42.507Z,50.71
2017-09-23T08:59:42.534Z,50.9
2017-09-23T09:00:42.558Z,50.71
2017-09-23T09:01:42.583Z,50.83
2017-09-23T09:02:42.608Z,49.48
2017-09-23T09:03:42.635Z,49.1
2017-09-23T09:04:42.656Z,48.54
2017-09-23T09:05:42.683Z,49.02
2017-09-23T09:06:42.706Z,48.35
2017-09-23T09:07:42.730Z,48.54
2017-09-23T09:08:42.756Z,48.25
2017-09-23T09:09:42.779Z,47.41
2017-09-23T09:10:42.810Z,47.99
2017-09-23T09:11:42.836Z,47.6
2017-09-23T09:12:42.863Z,47.12
2017-09-23T09:13:42.888Z,47.12
2017-09-23T09:14:42.910Z,47.41
2017-09-23T09:15:42.936Z,47.41
2017-09-23T09:16:42.975Z,47.41
2017-09-23T09:17:42.982Z,46.64
2017-09-23T09:18:43.010Z,46.86
2017-09-23T09:19:43.035Z,46.45
2017-09-23T09:20:43.062Z,46.66
2017-09-23T09:21:43.090Z,46.86
2017-09-23T09:22:43.109Z,47.6
2017-09-23T09:23:43.458Z,47.05
2017-09-23T09:24:43.188Z,47.92
2017-09-23T09:25:43.194Z,46.95
2017-09-23T09:26:43.217Z,46.37
2017-09-23T09:27:43.244Z,46.59
2017-09-23T09:28:43.264Z,46.49
2017-09-23T09:29:43.302Z,46.3
2017-09-23T09:30:43.314Z,46.59
2017-09-23T09:31:43.363Z,46.4
2017-09-23T09:32:43.370Z,46.49
2017-09-23T09:33:43.390Z,46.69
2017-09-23T09:34:43.419Z,47.17
2017-09-23T09:35:43.757Z,46.4
2017-09-23T09:36:43.472Z,46.03
2017-09-23T09:37:43.500Z,45.94
2017-09-23T09:38:43.519Z,45.94
2017-09-23T09:39:43.547Z,46.03
2017-09-23T09:40:43.575Z,45.75
2017-09-23T09:41:43.599Z,45.36
2017-09-23T09:42:43.626Z,45
2017-09-23T09:43:43.656Z,44.32
2017-09-23T09:44:43.680Z,43.45
2017-09-23T09:45:43.708Z,44.03
2017-09-23T09:46:43.737Z,43.37
2017-09-23T09:47:44.129Z,43.1
2017-09-23T09:48:43.806Z,42.62
2017-09-23T09:49:43.817Z,41.77
2017-09-23T09:50:43.845Z,42.07
2017-09-23T09:51:43.874Z,41.02
2017-09-23T09:52:43.905Z,41.02
2017-09-23T09:53:43.933Z,40.83
2017-09-23T09:54:43.960Z,40.63
2017-09-23T09:55:43.993Z,39.69
2017-09-23T09:56:44.023Z,39.88
2017-09-23T09:57:44.051Z,39.8
2017-09-23T09:58:44.082Z,39.7
2017-09-23T09:59:44.106Z,39.03
2017-09-23T10:00:44.132Z,38.83
2017-09-23T10:01:44.159Z,39.03
2017-09-23T10:02:44.191Z,38.56
2017-09-23T10:03:44.238Z,38.56
2017-09-23T10:04:44.274Z,38.17
2017-09-23T10:05:44.279Z,37.71
2017-09-23T10:06:44.367Z,37.51
2017-09-23T10:07:44.337Z,37.32
2017-09-23T10:08:44.375Z,36.93
2017-09-23T10:09:44.403Z,37.05
2017-09-23T10:10:44.435Z,37.43
2017-09-23T10:11:44.465Z,37.41
2017-09-23T10:12:44.489Z,37.05
2017-09-23T10:13:44.520Z,37.05
2017-09-23T10:14:44.556Z,37.51
2017-09-23T10:15:44.583Z,36.95
2017-09-23T10:16:44.611Z,36.77
2017-09-23T10:17:44.652Z,36.38
2017-09-23T10:18:44.673Z,36.21
2017-09-23T10:19:44.707Z,35.35
2017-09-23T10:20:44.740Z,34.97
2017-09-23T10:21:44.769Z,34.3
2017-09-23T10:22:44.798Z,33.83
2017-09-23T10:23:44.828Z,34.03
2017-09-23T10:24:44.859Z,34.12
2017-09-23T10:25:44.893Z,33.07
2017-09-23T10:26:44.922Z,32.78
2017-09-23T10:27:44.954Z,32.59
2017-09-23T10:28:44.985Z,32.4
2017-09-23T10:29:45.025Z,31.34
2017-09-23T10:30:45.048Z,31.34
2017-09-23T10:31:45.080Z,30.96
2017-09-23T10:32:45.116Z,31.25
2017-09-23T10:33:45.143Z,31.45
2017-09-23T10:34:45.197Z,30.49
2017-09-23T10:35:45.211Z,30.7
2017-09-23T10:36:45.256Z,30.9
2017-09-23T10:37:45.298Z,30.41
2017-09-23T10:38:45.306Z,30.21
2017-09-23T10:39:45.336Z,30.11
2017-09-23T10:40:45.376Z,30.21
2017-09-23T10:41:45.454Z,29.53
2017-09-23T10:42:45.449Z,29.92
2017-09-23T10:43:45.475Z,29.24
2017-09-23T10:44:45.506Z,28.86
2017-09-23T10:45:45.538Z,28.77
2017-09-23T10:46:45.574Z,29.17
2017-09-23T10:47:45.607Z,28.58
2017-09-23T10:48:45.636Z,28.29
2017-09-23T10:49:45.670Z,28.29
2017-09-23T10:50:45.701Z,27.91
2017-09-23T10:51:45.733Z,27.91
2017-09-23T10:52:45.773Z,27.91
2017-09-23T10:53:45.803Z,28.01
2017-09-23T10:54:45.842Z,27.91
2017-09-23T10:55:45.872Z,28.3
2017-09-23T10:56:45.905Z,27.73
2017-09-23T10:57:45.944Z,27.05
2017-09-23T10:58:46.280Z,27.44
2017-09-23T10:59:46.009Z,27.25
2017-09-23T11:00:46.038Z,27.15
2017-09-23T11:01:46.082Z,27.52
2017-09-23T11:02:46.115Z,26.93
2017-09-23T11:03:46.140Z,26.17
2017-09-23T11:04:46.177Z,25.88
2017-09-23T11:05:46.529Z,27.54
2017-09-23T11:06:46.239Z,26.93
2017-09-23T11:07:46.276Z,26.46
2017-09-23T11:08:46.309Z,26.37
2017-09-23T11:09:46.344Z,26.09
2017-09-23T11:10:46.378Z,25.89
2017-09-23T11:11:46.415Z,25.89
2017-09-23T11:12:46.448Z,27.15
2017-09-23T11:13:46.477Z,26.84
2017-09-23T11:14:46.563Z,26.76
2017-09-23T11:15:46.548Z,26.38
2017-09-23T11:16:46.627Z,25.9
2017-09-23T11:17:46.614Z,24.84
2017-09-23T11:18:46.649Z,24.46
2017-09-23T11:19:46.805Z,24.55
2017-09-23T11:20:46.830Z,23.69
2017-09-23T11:21:46.755Z,23.88
2017-09-23T11:22:46.781Z,23.8
2017-09-23T11:23:46.822Z,23.9
2017-09-23T11:24:46.850Z,23.59
2017-09-23T11:25:46.885Z,24.29
2017-09-23T11:26:46.918Z,23.7
2017-09-23T11:27:47.270Z,23.99
2017-09-23T11:28:46.990Z,23.8
2017-09-23T11:29:47.330Z,24.18
2017-09-23T11:30:47.053Z,24.07
2017-09-23T11:31:47.144Z,24.16
2017-09-23T11:32:47.124Z,24.85
2017-09-23T11:33:47.157Z,24.95
2017-09-23T11:34:47.193Z,25.04
2017-09-23T11:35:47.256Z,25.6
2017-09-23T11:36:47.255Z,25.78
2017-09-23T11:37:47.294Z,26.46
2017-09-23T11:38:47.332Z,26.64
2017-09-23T11:39:47.356Z,26.25
2017-09-23T11:40:47.391Z,25.76
2017-09-23T11:41:47.424Z,25.96
2017-09-23T11:42:47.455Z,26.46
2017-09-23T11:43:47.514Z,26.84
2017-09-23T11:44:47.517Z,26.64
2017-09-23T11:45:47.559Z,26.06
2017-09-23T11:46:47.731Z,25.29
2017-09-23T11:47:47.633Z,25.31
2017-09-23T11:48:48.274Z,24.63
2017-09-23T11:49:47.681Z,23.65
2017-09-23T11:50:47.718Z,23.57
2017-09-23T11:51:47.747Z,23.19
2017-09-23T11:52:47.811Z,22.52
2017-09-23T11:53:47.821Z,22.24
2017-09-23T11:54:49.425Z,22.25
2017-09-23T11:55:48.040Z,21.77
2017-09-23T11:56:47.917Z,21.39
2017-09-23T11:57:47.952Z,20.42
2017-09-23T11:58:47.985Z,20.51
2017-09-23T11:59:48.023Z,20.32
2017-09-23T12:00:48.062Z,20.12
2017-09-23T12:01:48.090Z,20.14
2017-09-23T12:02:48.122Z,19.17
2017-09-23T12:03:48.158Z,18.79
2017-09-23T12:04:50.148Z,18.6
2017-09-23T12:05:48.280Z,19
2017-09-23T12:06:48.262Z,17.73
2017-09-23T12:07:48.306Z,17.73
2017-09-23T12:08:48.335Z,17.33
2017-09-23T12:09:48.831Z,17.24
2017-09-23T12:10:48.518Z,16.86
2017-09-23T12:11:48.444Z,16.36
2017-09-23T12:12:48.484Z,16.36
2017-09-23T12:13:48.515Z,16.77
2017-09-23T12:14:48.554Z,15.69
2017-09-23T12:15:48.594Z,15.99
2017-09-23T12:16:48.628Z,15.41
2017-09-23T12:17:48.697Z,15.31
2017-09-23T12:18:48.790Z,14.82
2017-09-23T12:19:48.744Z,15.01
2017-09-23T12:20:48.830Z,15.69
2017-09-23T12:21:48.829Z,15.97
2017-09-23T12:22:48.853Z,16.46
2017-09-23T12:23:48.887Z,16.83
2017-09-23T12:24:49.232Z,16.93
2017-09-23T12:25:48.958Z,17.03
2017-09-23T12:26:49.011Z,16.93
2017-09-23T12:27:49.047Z,16.16
2017-09-23T12:28:49.074Z,16.07
2017-09-23T12:29:49.112Z,15.69
2017-09-23T12:30:49.662Z,15.39
2017-09-23T12:31:49.656Z,14.9
2017-09-23T12:32:49.220Z,15.3
2017-09-23T12:33:49.302Z,15.58
2017-09-23T12:34:49.292Z,15
2017-09-23T12:35:49.329Z,15.59
2017-09-23T12:36:49.369Z,15.58
2017-09-23T12:37:49.402Z,16.36
2017-09-23T12:38:49.493Z,16.66
2017-09-23T12:39:49.476Z,16.36
2017-09-23T12:40:49.513Z,16.35
2017-09-23T12:41:49.547Z,16.55
2017-09-23T12:43:24.743Z,15.08
2017-09-23T12:43:49.628Z,14.61
2017-09-23T12:44:49.661Z,14.72
2017-09-23T12:45:49.697Z,13.74
2017-09-23T12:46:49.743Z,13.84
2017-09-23T12:47:49.777Z,14.15
2017-09-23T12:48:49.816Z,13.65
2017-09-23T12:49:49.848Z,13.55
2017-09-23T12:50:49.882Z,13.45
2017-09-23T12:51:49.922Z,13.95
2017-09-23T12:52:49.983Z,14.34
2017-09-23T12:53:50.039Z,14.72
2017-09-23T12:54:50.031Z,14.61
2017-09-23T12:55:50.064Z,15.2
2017-09-23T12:56:50.100Z,14.61